Plymouth, MI (48170)

1:12 AM EDT on July 30, 2016 (GMT -0400)
Napier Observatory | | Change Station

Elev 798 ft 42.34 °N, 83.55 °W | Updated 7 seconds ago

Mostly Cloudy
Mostly Cloudy
68.2 °F
Feels Like 68.2 °F
N
0.0
Wind Variable Wind from NNW
Gusts 3.0 mph

Today
High -- | Low -- °F
--% Chance of Precip.
Yesterday
High -- | Low -- °F
Precip. -- in
Pressure 29.97 in
Visibility 10.0 miles
Clouds Scattered Clouds 4700 ft
Mostly Cloudy 6000 ft
Mostly Cloudy 10000 ft
Dew Point 59 °F
Humidity 72%
Rainfall 0.00 in
Snow Depth Not available.
6:25 AM 8:55 PM
Waning Crescent, 16% visible
METAR KYIP 300453Z AUTO 03005KT 10SM SCT047 BKN060 BKN100 23/14 A2999 RMK AO2 SLP148 T02280139 403280183 TSNO
Pressure 29.97 in
Visibility 10.0 miles
Clouds Scattered Clouds 4700 ft
Mostly Cloudy 6000 ft
Mostly Cloudy 10000 ft
Dew Point 59 °F
Humidity 72%
Rainfall 0.00 in
Snow Depth Not available.
6:25 AM 8:55 PM
Waning Crescent, 16% visible
METAR KYIP 300453Z AUTO 03005KT 10SM SCT047 BKN060 BKN100 23/14 A2999 RMK AO2 SLP148 T02280139 403280183 TSNO

10-Day Weather Forecast

Almanac

Astronomy

Jul. 30, 2016 Rise Set
Actual Time
Civil Twilight
Nautical Twilight
Astronomical Twilight
Moon
Length of Visible Light
Length of Day
Tomorrow will be .
, % of the Moon is Illuminated

Today's Extremes

State Highs State Lows

Community

WunderPhotos

Upload Photos

1,928,506 photos uploaded!

WunderBlog® & News

Nearby

Air Quality

  Air Quality AQ Index Pollutant
Not available.

Snow Depth

Station Depth Elevation

Earthquake Activity

City Distance Mag. Time & Date
Minimum magnitude displayed is 2.5.

Coastal Water Temperatures

Place Temperature

Stations

Nearby Weather Stations

Station Location Temp. Windchill Dew Point Humidity Wind Precip. Elev Updated Type
                   

Watches & Warnings

There are currently no watches in effect.